Time;durP1;ratioP1;P1;durP2;ratioP2;P2;SDS_P1;SDS_P2;PMS_P1;PMS_P2;Temp;Humidity;BMP_temperature;BMP_pressure;BME280_temperature;BME280_humidity;BME280_pressure;Samples;Min_cycle;Max_cycle;Signal;HPM_P1;HPM_P2
2022/07/29 00:00:28;;;;;;;0.70;0.70;;;20.70;54.90;;;;;;4745030;30;20185;-88
2022/07/29 00:03:00;;;;;;;0.80;0.80;;;20.70;55.00;;;;;;4744711;30;20193;-88
2022/07/29 00:05:29;;;;;;;0.70;0.70;;;20.70;54.90;;;;;;4744800;30;20200;-88
2022/07/29 00:07:57;;;;;;;0.60;0.60;;;20.70;54.90;;;;;;4745205;30;20193;-89
2022/07/29 00:10:24;;;;;;;0.70;0.70;;;20.70;54.90;;;;;;4727007;30;20301;-89
2022/07/29 00:13:09;;;;;;;0.70;0.70;;;20.70;54.90;;;;;;4727244;30;20193;-88
2022/07/29 00:15:39;;;;;;;0.68;0.68;;;20.70;54.90;;;;;;4726936;30;20360;-88
2022/07/29 00:18:05;;;;;;;0.70;0.70;;;20.70;54.90;;;;;;4707165;30;20191;-88
2022/07/29 00:20:31;;;;;;;0.80;0.70;;;20.70;54.90;;;;;;4726074;30;20637;-88
2022/07/29 00:23:03;;;;;;;0.85;0.80;;;20.70;54.90;;;;;;4716287;30;20197;-89
2022/07/29 00:25:32;;;;;;;0.63;0.63;;;20.70;54.90;;;;;;4730528;30;20200;-89
2022/07/29 00:28:00;;;;;;;0.80;0.80;;;20.70;54.90;;;;;;4709902;30;20245;-88
2022/07/29 00:30:29;;;;;;;0.63;0.63;;;20.70;54.90;;;;;;4712194;30;20259;-88
2022/07/29 00:33:03;;;;;;;0.85;0.82;;;20.70;54.90;;;;;;4712216;30;20201;-88
2022/07/29 00:35:46;;;;;;;0.70;0.70;;;20.70;55.00;;;;;;4711276;30;20231;-88
2022/07/29 00:38:16;;;;;;;0.77;0.70;;;20.70;55.00;;;;;;4684492;30;20209;-88
2022/07/29 00:40:50;;;;;;;1.05;0.85;;;20.70;55.00;;;;;;4688352;30;20196;-88
2022/07/29 00:43:19;;;;;;;0.98;0.80;;;20.70;55.00;;;;;;4732541;30;20226;-89
2022/07/29 00:45:47;;;;;;;0.70;0.70;;;20.60;54.90;;;;;;4732621;30;20229;-88
2022/07/29 00:48:25;;;;;;;1.85;0.70;;;20.70;54.90;;;;;;4689899;30;20212;-88
2022/07/29 00:50:58;;;;;;;0.68;0.60;;;20.60;54.90;;;;;;4701010;30;20197;-88
2022/07/29 00:53:29;;;;;;;0.60;0.60;;;20.70;54.90;;;;;;4712183;30;20258;-89
2022/07/29 00:55:57;;;;;;;0.70;0.70;;;20.70;54.90;;;;;;4726590;30;20249;-88
2022/07/29 00:58:28;;;;;;;0.73;0.70;;;20.70;55.00;;;;;;4732868;30;20201;-89
2022/07/29 01:00:58;;;;;;;0.65;0.65;;;20.70;54.90;;;;;;4726000;30;20195;-88
2022/07/29 01:03:30;;;;;;;0.82;0.70;;;20.70;54.90;;;;;;4727137;30;20195;-88
2022/07/29 01:06:12;;;;;;;0.80;0.73;;;20.70;54.90;;;;;;4677412;30;20203;-89
2022/07/29 01:08:50;;;;;;;0.57;0.57;;;20.70;55.00;;;;;;4700011;30;20328;-89
2022/07/29 01:11:19;;;;;;;0.90;0.77;;;20.70;54.90;;;;;;4726620;30;20222;-88
2022/07/29 01:13:50;;;;;;;0.80;0.73;;;20.70;55.00;;;;;;4726838;30;20194;-88
2022/07/29 01:16:23;;;;;;;0.60;0.60;;;20.70;55.00;;;;;;4712096;30;20297;-89
2022/07/29 01:18:51;;;;;;;0.63;0.63;;;20.70;54.90;;;;;;4765330;30;20208;-88
2022/07/29 01:21:51;;;;;;;0.70;0.70;;;20.70;55.00;;;;;;4815992;29;20187;-88
2022/07/29 01:24:36;;;;;;;0.70;0.70;;;20.70;55.00;;;;;;4800704;29;20186;-88
2022/07/29 01:27:18;;;;;;;0.80;0.80;;;20.70;55.00;;;;;;4817998;29;20237;-88
2022/07/29 01:29:51;;;;;;;0.60;0.60;;;20.70;55.00;;;;;;4803319;29;20194;-88
2022/07/29 01:32:42;;;;;;;1.25;0.60;;;20.70;55.00;;;;;;4789299;29;20693;-88
2022/07/29 01:35:23;;;;;;;0.63;0.63;;;20.60;54.90;;;;;;4787913;30;20289;-88
2022/07/29 01:38:05;;;;;;;0.77;0.77;;;20.70;55.00;;;;;;4782725;30;20224;-88
2022/07/29 01:40:50;;;;;;;1.10;0.88;;;20.70;55.00;;;;;;4767298;30;20210;-88
2022/07/29 01:43:23;;;;;;;0.88;0.88;;;20.70;55.00;;;;;;4769690;30;20207;-89
2022/07/29 01:46:09;;;;;;;0.70;0.70;;;20.60;55.00;;;;;;4785493;30;20192;-88
2022/07/29 01:48:43;;;;;;;0.60;0.60;;;20.70;55.00;;;;;;4800134;30;20183;-88
2022/07/29 01:51:18;;;;;;;0.70;0.70;;;20.60;55.00;;;;;;4796076;29;20204;-88
2022/07/29 01:54:02;;;;;;;0.70;0.70;;;20.60;55.00;;;;;;4781334;29;20225;-89
2022/07/29 01:56:33;;;;;;;0.60;0.60;;;20.60;55.00;;;;;;4781441;30;20241;-90
2022/07/29 01:59:08;;;;;;;0.52;0.52;;;20.60;55.00;;;;;;4796411;29;20188;-89
2022/07/29 02:01:41;;;;;;;0.90;0.70;;;20.60;55.00;;;;;;4800060;30;20193;-89
2022/07/29 02:04:09;;;;;;;0.85;0.85;;;20.70;55.00;;;;;;4784915;30;20259;-89
2022/07/29 02:06:43;;;;;;;0.60;0.60;;;20.70;55.00;;;;;;4798428;29;20339;-89
2022/07/29 02:09:11;;;;;;;0.70;0.70;;;20.70;55.10;;;;;;4767932;30;20196;-89
2022/07/29 02:11:56;;;;;;;0.70;0.70;;;20.70;55.10;;;;;;4781854;30;20311;-89
2022/07/29 02:14:26;;;;;;;0.77;0.77;;;20.60;55.00;;;;;;4781741;29;20195;-89
2022/07/29 02:16:54;;;;;;;0.60;0.60;;;20.60;55.10;;;;;;4781964;29;20216;-90
2022/07/29 02:19:22;;;;;;;0.80;0.63;;;20.60;55.10;;;;;;4800013;29;20387;-89
2022/07/29 02:21:52;;;;;;;1.08;0.90;;;20.60;55.00;;;;;;4759977;30;20272;-90
2022/07/29 02:24:19;;;;;;;0.80;0.80;;;20.60;55.10;;;;;;4778736;30;20193;-89
2022/07/29 02:26:45;;;;;;;0.77;0.70;;;20.60;55.00;;;;;;4779283;30;20641;-89
2022/07/29 02:29:18;;;;;;;0.80;0.80;;;20.60;55.00;;;;;;4778383;30;20195;-89
2022/07/29 02:31:52;;;;;;;0.98;0.90;;;20.70;55.10;;;;;;4777940;30;20287;-89
2022/07/29 02:34:27;;;;;;;0.98;0.90;;;20.60;55.00;;;;;;4774360;30;20197;-89
2022/07/29 02:36:53;;;;;;;0.82;0.70;;;20.60;55.00;;;;;;4796585;30;20265;-90
2022/07/29 02:39:20;;;;;;;0.60;0.60;;;20.60;55.00;;;;;;4794050;30;20188;-89
2022/07/29 02:41:51;;;;;;;0.85;0.82;;;20.60;55.10;;;;;;4780840;30;20187;-89
2022/07/29 02:44:20;;;;;;;0.77;0.77;;;20.60;55.10;;;;;;4796551;29;20231;-89
2022/07/29 02:47:12;;;;;;;0.77;0.77;;;20.60;55.10;;;;;;4814519;29;20190;-89
2022/07/29 02:50:02;;;;;;;0.70;0.70;;;20.60;55.10;;;;;;4812993;29;20195;-89
2022/07/29 02:52:34;;;;;;;0.70;0.70;;;20.60;55.10;;;;;;4811199;29;20217;-89
2022/07/29 02:55:10;;;;;;;0.65;0.65;;;20.60;55.10;;;;;;4813424;29;20198;-89
2022/07/29 02:57:42;;;;;;;0.88;0.65;;;20.60;55.10;;;;;;4798843;29;20214;-89
2022/07/29 03:00:09;;;;;;;0.80;0.73;;;20.60;55.10;;;;;;4784869;30;20649;-89
2022/07/29 03:02:39;;;;;;;1.20;0.80;;;20.60;55.10;;;;;;4798931;30;20216;-89
2022/07/29 03:05:07;;;;;;;0.60;0.60;;;20.60;55.10;;;;;;4803827;29;20205;-89
2022/07/29 03:07:35;;;;;;;0.60;0.60;;;20.60;55.10;;;;;;4786796;29;20191;-89
2022/07/29 03:10:08;;;;;;;0.63;0.63;;;20.60;55.10;;;;;;4798012;29;20199;-89
2022/07/29 03:12:36;;;;;;;0.60;0.60;;;20.60;55.10;;;;;;4768554;30;20213;-89
2022/07/29 03:15:21;;;;;;;0.60;0.60;;;20.60;55.10;;;;;;4761930;30;20223;-89
2022/07/29 03:17:59;;;;;;;0.82;0.70;;;20.60;55.10;;;;;;4748971;30;20255;-89
2022/07/29 03:20:41;;;;;;;0.80;0.80;;;20.60;55.10;;;;;;4746228;30;20256;-89
2022/07/29 03:23:10;;;;;;;1.00;0.88;;;20.60;55.10;;;;;;4762027;30;20170;-90
2022/07/29 03:25:45;;;;;;;0.60;0.60;;;20.60;55.10;;;;;;4775233;30;20191;-90
2022/07/29 03:28:23;;;;;;;0.60;0.60;;;20.60;55.10;;;;;;4784659;30;20175;-90
2022/07/29 03:31:20;;;;;;;0.98;0.88;;;20.60;55.10;;;;;;4788074;29;20193;-90
2022/07/29 03:34:14;;;;;;;0.60;0.60;;;20.60;55.10;;;;;;4774434;29;20194;-89
2022/07/29 03:36:49;;;;;;;0.77;0.65;;;20.60;55.10;;;;;;4801288;29;20688;-89
2022/07/29 03:40:11;;;;;;;;;;;;;;;;;;;;;
2022/07/29 03:43:27;;;;;;;;;;;;;;;;;;;;;
2022/07/29 03:46:33;;;;;;;0.70;0.70;;;20.70;55.10;;;;;;4692474;30;20280;-90
2022/07/29 03:49:36;;;;;;;0.70;0.70;;;20.60;55.10;;;;;;4718720;30;20226;-90
2022/07/29 03:52:29;;;;;;;;;;;;;;;;;;;;;
2022/07/29 03:55:24;;;;;;;0.70;0.70;;;20.70;55.10;;;;;;4648507;30;20285;-90
2022/07/29 03:58:32;;;;;;;0.70;0.60;;;20.60;55.00;;;;;;4625399;31;20230;-89
2022/07/29 04:01:26;;;;;;;0.60;0.60;;;20.70;55.00;;;;;;4607599;31;20202;-90
2022/07/29 04:04:09;;;;;;;0.57;0.57;;;20.70;55.00;;;;;;4625049;31;20202;-89
2022/07/29 04:06:44;;;;;;;0.80;0.77;;;20.70;54.90;;;;;;4627343;30;20687;-90
2022/07/29 04:09:25;;;;;;;0.80;0.63;;;20.70;54.80;;;;;;4608849;31;20222;-87
2022/07/29 04:12:22;;;;;;;;;;;;;;;;;;;;;
2022/07/29 04:14:53;;;;;;;0.63;0.63;;;20.70;54.80;;;;;;4649521;30;20293;-88
2022/07/29 04:17:40;;;;;;;0.70;0.70;;;20.80;54.70;;;;;;4588196;31;20227;-89
2022/07/29 04:20:18;;;;;;;0.70;0.70;;;20.80;54.70;;;;;;4591406;31;20204;-88
2022/07/29 04:23:33;;;;;;;;;;;;;;;;;;;;;
2022/07/29 04:26:37;;;;;;;0.82;0.70;;;20.80;54.60;;;;;;4663568;30;20309;-89
2022/07/29 04:29:44;;;;;;;0.73;0.63;;;20.80;54.60;;;;;;4573714;31;20211;-88
2022/07/29 04:32:35;;;;;;;0.70;0.70;;;20.90;54.60;;;;;;4579043;31;20232;-90
2022/07/29 04:35:36;;;;;;;;;;;;;;;;;;;;;
2022/07/29 04:38:36;;;;;;;0.98;0.80;;;20.90;54.50;;;;;;4639720;31;20323;-90
2022/07/29 04:41:08;;;;;;;0.80;0.80;;;20.90;54.50;;;;;;4643766;31;20580;-88
2022/07/29 04:44:05;;;;;;;;;;;;;;;;;;;;;
2022/07/29 04:47:07;;;;;;;0.60;0.60;;;20.90;54.50;;;;;;4639430;30;20660;-89
2022/07/29 04:49:57;;;;;;;0.50;0.50;;;20.90;54.50;;;;;;4612017;31;20205;-89
2022/07/29 04:52:42;;;;;;;0.75;0.75;;;21.00;54.40;;;;;;4644754;30;20201;-88
2022/07/29 04:55:26;;;;;;;0.60;0.60;;;20.90;54.40;;;;;;4657135;30;20233;-89
2022/07/29 04:58:23;;;;;;;0.60;0.60;;;20.90;54.40;;;;;;4625363;31;20229;-89
2022/07/29 05:01:23;;;;;;;;;;;;;;;;;;;;;
2022/07/29 05:04:11;;;;;;;0.50;0.50;;;21.00;54.40;;;;;;4617792;31;20288;-88
2022/07/29 05:11:01;;;;;;;0.63;0.60;;;21.00;54.60;;;;;;4660869;30;20231;-88
2022/07/29 05:13:55;;;;;;;0.70;0.70;;;21.10;54.60;;;;;;4643255;30;20211;-89
2022/07/29 05:17:10;;;;;;;0.65;0.60;;;21.10;54.60;;;;;;4586767;31;20256;-89
2022/07/29 05:20:14;;;;;;;0.52;0.52;;;21.10;54.50;;;;;;4585595;31;20295;-89
2022/07/29 05:23:04;;;;;;;0.70;0.60;;;21.10;54.40;;;;;;4576480;31;20203;-89
2022/07/29 05:26:00;;;;;;;;;;;;;;;;;;;;;
2022/07/29 05:29:09;;;;;;;0.73;0.57;;;21.00;54.50;;;;;;4572254;31;20276;-90
2022/07/29 05:32:36;;;;;;;0.60;0.60;;;21.10;54.70;;;;;;4570649;31;20204;-89
2022/07/29 05:35:45;;;;;;;0.60;0.60;;;21.10;54.60;;;;;;4610607;31;20207;-88
2022/07/29 05:39:14;;;;;;;0.50;0.50;;;21.20;54.50;;;;;;4596220;31;20632;-89
2022/07/29 05:41:36;;;;;;;0.50;0.50;;;21.20;54.50;;;;;;4612880;31;20194;-89
2022/07/29 05:45:01;;;;;;;0.60;0.60;;;21.20;54.60;;;;;;4576449;31;20236;-89
2022/07/29 05:47:56;;;;;;;;;;;;;;;;;;;;;
2022/07/29 05:51:01;;;;;;;0.60;0.60;;;21.30;54.50;;;;;;4528745;31;20265;-89
2022/07/29 05:53:44;;;;;;;0.70;0.70;;;21.30;54.40;;;;;;4576364;31;20286;-89
2022/07/29 05:56:39;;;;;;;0.68;0.63;;;21.30;54.50;;;;;;4511836;31;20235;-89
2022/07/29 06:00:06;;;;;;;0.50;0.50;;;21.30;54.40;;;;;;4457787;31;20238;-88
2022/07/29 06:03:42;;;;;;;;;;;;;;;;;;;;;
2022/07/29 06:06:27;;;;;;;0.60;0.60;;;21.30;54.40;;;;;;4508577;31;20250;-88
2022/07/29 06:09:27;;;;;;;0.57;0.57;;;21.40;54.40;;;;;;4495660;31;20299;-89
2022/07/29 06:12:26;;;;;;;;;;;;;;;;;;;;;
2022/07/29 06:18:11;;;;;;;;;;;;;;;;;;;;;
2022/07/29 06:21:24;;;;;;;0.68;0.60;;;21.50;54.30;;;;;;4571764;31;20264;-89
2022/07/29 06:24:47;;;;;;;;;;;;;;;;;;;;;
2022/07/29 06:28:06;;;;;;;0.50;0.50;;;21.50;54.10;;;;;;4553385;31;20290;-89
2022/07/29 06:33:59;;;;;;;0.57;0.57;;;21.50;53.70;;;;;;4570569;31;20313;-89
2022/07/29 06:37:17;;;;;;;0.50;0.50;;;21.50;53.60;;;;;;4566713;31;20234;-89
2022/07/29 06:43:06;;;;;;;;;;;;;;;;;;;;;
2022/07/29 06:46:34;;;;;;;;;;;;;;;;;;;;;
2022/07/29 06:49:14;;;;;;;0.55;0.55;;;21.50;53.40;;;;;;4606124;31;20257;-89
2022/07/29 06:52:24;;;;;;;0.60;0.60;;;21.50;53.20;;;;;;4618017;31;20201;-88
2022/07/29 06:55:33;;;;;;;;;;;;;;;;;;;;;
2022/07/29 06:58:19;;;;;;;0.57;0.57;;;21.60;53.10;;;;;;4654244;30;20303;-89
2022/07/29 07:01:25;;;;;;;0.63;0.63;;;21.60;53.00;;;;;;4636189;30;20241;-88
2022/07/29 07:03:55;;;;;;;0.50;0.50;;;21.60;52.60;;;;;;4642559;30;20198;-88
2022/07/29 07:06:58;;;;;;;;;;;;;;;;;;;;;
2022/07/29 07:09:53;;;;;;;0.65;0.50;;;21.70;52.40;;;;;;4608783;31;20270;-89
2022/07/29 07:13:02;;;;;;;0.40;0.40;;;21.70;52.30;;;;;;4614255;31;20194;-89
2022/07/29 07:15:50;;;;;;;0.47;0.45;;;21.70;52.20;;;;;;4570083;31;20220;-89
2022/07/29 07:18:38;;;;;;;0.50;0.50;;;21.70;52.20;;;;;;4562590;31;20200;-89
2022/07/29 07:21:20;;;;;;;0.40;0.40;;;21.70;52.00;;;;;;4563260;31;20267;-89
2022/07/29 07:24:18;;;;;;;;;;;;;;;;;;;;;
2022/07/29 07:26:54;;;;;;;0.60;0.60;;;21.80;51.80;;;;;;4576857;31;20271;-88
2022/07/29 07:29:43;;;;;;;;;;;;;;;;;;;;;
2022/07/29 07:32:16;;;;;;;0.63;0.60;;;21.70;51.80;;;;;;4546576;31;20296;-89
2022/07/29 07:34:47;;;;;;;0.55;0.52;;;21.70;51.70;;;;;;4558745;31;20291;-88
2022/07/29 07:37:45;;;;;;;0.50;0.50;;;21.80;51.70;;;;;;4558495;31;20243;-88
2022/07/29 07:40:23;;;;;;;0.50;0.50;;;21.70;51.60;;;;;;4576704;31;20206;-89
2022/07/29 07:42:57;;;;;;;0.52;0.52;;;21.70;51.60;;;;;;4611602;31;20197;-89
2022/07/29 07:45:26;;;;;;;0.50;0.50;;;21.80;51.50;;;;;;4610260;30;20272;-88
2022/07/29 07:48:10;;;;;;;0.32;0.32;;;21.70;51.60;;;;;;4625726;31;20205;-88
2022/07/29 07:50:51;;;;;;;;;;;;;;;;;;;;;
2022/07/29 07:53:22;;;;;;;0.60;0.60;;;21.70;51.50;;;;;;4630398;30;20747;-89
2022/07/29 07:56:01;;;;;;;0.50;0.50;;;21.60;51.40;;;;;;4632307;30;20197;-89
2022/07/29 07:58:35;;;;;;;1.48;0.60;;;21.70;51.40;;;;;;4644800;31;20236;-89
2022/07/29 08:01:11;;;;;;;0.50;0.50;;;21.80;51.20;;;;;;4658521;30;20199;-88
2022/07/29 08:03:44;;;;;;;0.43;0.43;;;21.70;51.20;;;;;;4639937;31;20210;-89
2022/07/29 08:06:10;;;;;;;1.33;0.60;;;21.70;51.00;;;;;;4637756;31;20799;-89
2022/07/29 08:08:38;;;;;;;0.50;0.50;;;21.70;51.20;;;;;;4639822;30;20209;-89
2022/07/29 08:11:20;;;;;;;0.52;0.52;;;21.60;51.10;;;;;;4639141;31;20198;-89
2022/07/29 08:13:54;;;;;;;0.60;0.55;;;21.70;51.10;;;;;;4635506;30;20201;-88
2022/07/29 08:16:32;;;;;;;0.60;0.60;;;21.60;51.30;;;;;;4632249;30;20220;-89
2022/07/29 08:19:00;;;;;;;0.43;0.43;;;21.60;51.20;;;;;;4632424;30;20193;-89
2022/07/29 08:21:37;;;;;;;0.57;0.50;;;21.70;51.00;;;;;;4626173;30;20206;-89
2022/07/29 08:27:05;;;;;;;0.50;0.50;;;21.80;50.70;;;;;;4658752;30;20197;-90
2022/07/29 08:29:41;;;;;;;0.50;0.50;;;21.90;50.60;;;;;;4688860;30;20205;-88
2022/07/29 08:32:49;;;;;;;0.52;0.52;;;21.90;50.30;;;;;;4659582;30;20193;-89
2022/07/29 08:35:23;;;;;;;0.60;0.60;;;21.90;50.30;;;;;;4633609;30;20198;-89
2022/07/29 08:38:25;;;;;;;;;;;;;;;;;;;;;
2022/07/29 08:41:11;;;;;;;0.68;0.63;;;21.90;50.20;;;;;;4630830;30;20280;-89
2022/07/29 08:43:44;;;;;;;1.20;0.70;;;21.80;50.10;;;;;;4699161;30;20210;-88
2022/07/29 08:46:13;;;;;;;0.60;0.60;;;21.90;50.20;;;;;;4707322;30;20199;-88
2022/07/29 08:48:48;;;;;;;0.55;0.50;;;21.90;50.00;;;;;;4706870;30;20597;-89
2022/07/29 08:51:25;;;;;;;0.50;0.50;;;21.90;50.00;;;;;;4706638;30;20222;-89
2022/07/29 08:53:56;;;;;;;0.60;0.60;;;21.80;50.10;;;;;;4708479;30;20198;-89
2022/07/29 08:56:32;;;;;;;0.50;0.50;;;21.80;50.10;;;;;;4707988;30;20287;-90
2022/07/29 08:59:03;;;;;;;0.57;0.50;;;21.90;50.00;;;;;;4707482;30;20197;-90
2022/07/29 09:01:38;;;;;;;0.50;0.50;;;21.80;50.00;;;;;;4668669;30;20643;-89
2022/07/29 09:04:09;;;;;;;0.40;0.40;;;21.90;50.00;;;;;;4698138;30;20717;-89
2022/07/29 09:06:44;;;;;;;0.40;0.40;;;21.90;49.90;;;;;;4655287;30;20204;-89
2022/07/29 09:09:13;;;;;;;0.55;0.50;;;21.90;49.70;;;;;;4656416;30;20220;-90
2022/07/29 09:11:50;;;;;;;0.52;0.52;;;21.90;49.70;;;;;;4679544;30;20582;-90
2022/07/29 09:14:19;;;;;;;0.60;0.60;;;21.90;49.80;;;;;;4679828;30;20387;-90
2022/07/29 09:16:47;;;;;;;0.50;0.50;;;21.80;49.90;;;;;;4678975;30;20226;-89
2022/07/29 09:19:25;;;;;;;0.60;0.60;;;21.80;50.00;;;;;;4706218;30;20197;-89
2022/07/29 09:22:00;;;;;;;0.60;0.60;;;21.90;50.00;;;;;;4710852;30;20200;-90
2022/07/29 09:24:40;;;;;;;0.50;0.50;;;21.90;49.90;;;;;;4680793;30;20273;-90
2022/07/29 09:27:20;;;;;;;0.60;0.60;;;21.90;49.80;;;;;;4708117;30;20640;-89
2022/07/29 09:29:46;;;;;;;0.60;0.60;;;21.90;49.60;;;;;;4663219;30;20199;-90
2022/07/29 09:32:15;;;;;;;0.50;0.50;;;21.90;49.60;;;;;;4662312;30;20203;-88
2022/07/29 09:34:43;;;;;;;0.50;0.50;;;21.90;49.40;;;;;;4673079;30;20204;-90
2022/07/29 09:37:12;;;;;;;0.60;0.60;;;22.00;49.30;;;;;;4711116;30;20245;-89
2022/07/29 09:39:45;;;;;;;0.50;0.50;;;21.90;49.40;;;;;;4710919;30;20281;-89
2022/07/29 09:42:14;;;;;;;0.50;0.50;;;22.00;49.20;;;;;;4711548;30;20190;-87
2022/07/29 09:44:44;;;;;;;0.57;0.57;;;22.00;49.20;;;;;;4710426;30;20218;-88
2022/07/29 09:47:10;;;;;;;0.40;0.40;;;22.00;49.20;;;;;;4711032;30;20196;-88
2022/07/29 09:49:58;;;;;;;0.50;0.50;;;22.00;49.10;;;;;;4712658;30;20229;-88
2022/07/29 09:52:27;;;;;;;0.60;0.50;;;21.90;49.20;;;;;;4745131;30;20195;-88
2022/07/29 09:54:55;;;;;;;0.50;0.50;;;22.00;49.20;;;;;;4771208;29;20198;-89
2022/07/29 09:57:25;;;;;;;0.50;0.50;;;21.90;49.20;;;;;;4795043;30;20219;-89
2022/07/29 10:00:10;;;;;;;0.60;0.60;;;22.00;49.10;;;;;;4803017;29;20187;-88
2022/07/29 10:02:43;;;;;;;0.60;0.60;;;22.00;49.10;;;;;;4797763;29;20193;-89
2022/07/29 10:05:29;;;;;;;0.50;0.50;;;22.00;49.00;;;;;;4765701;30;20199;-87
2022/07/29 10:07:58;;;;;;;0.50;0.50;;;21.90;49.20;;;;;;4779658;30;20327;-89
2022/07/29 10:10:35;;;;;;;0.55;0.55;;;21.90;49.30;;;;;;4779301;30;20192;-89
2022/07/29 10:13:11;;;;;;;0.75;0.75;;;22.00;49.20;;;;;;4751316;30;20214;-89
2022/07/29 10:15:40;;;;;;;0.50;0.50;;;22.00;49.00;;;;;;4779542;30;20573;-89
2022/07/29 10:18:10;;;;;;;0.50;0.50;;;22.00;48.90;;;;;;4778738;30;20256;-90
2022/07/29 10:20:37;;;;;;;0.60;0.60;;;22.00;48.90;;;;;;4778745;30;20225;-91
2022/07/29 10:23:03;;;;;;;0.50;0.50;;;22.00;48.80;;;;;;4776003;30;20185;-90
2022/07/29 10:26:00;;;;;;;0.70;0.70;;;22.00;48.80;;;;;;4740716;30;20282;-91
2022/07/29 10:28:26;;;;;;;0.52;0.52;;;22.00;48.60;;;;;;4721645;30;20209;-91
2022/07/29 10:30:58;;;;;;;0.70;0.50;;;22.10;48.70;;;;;;4728669;30;20196;-91
2022/07/29 10:33:42;;;;;;;0.57;0.57;;;22.00;48.60;;;;;;4728146;30;20571;-90
2022/07/29 10:36:26;;;;;;;0.50;0.50;;;22.00;48.80;;;;;;4746349;30;20612;-91
2022/07/29 10:39:18;;;;;;;0.50;0.50;;;22.00;48.70;;;;;;4764470;30;20187;-89
2022/07/29 10:41:48;;;;;;;0.50;0.50;;;22.10;48.60;;;;;;4766249;30;20195;-90
2022/07/29 10:44:24;;;;;;;0.45;0.45;;;22.00;48.60;;;;;;4758221;30;20332;-89
2022/07/29 10:46:51;;;;;;;0.57;0.57;;;21.90;48.60;;;;;;4757814;30;20219;-89
2022/07/29 10:49:18;;;;;;;0.70;0.70;;;22.10;48.50;;;;;;4757984;30;20188;-89
2022/07/29 10:51:59;;;;;;;0.50;0.50;;;22.10;48.40;;;;;;4758057;30;20197;-89
2022/07/29 10:54:42;;;;;;;0.57;0.57;;;22.00;48.50;;;;;;4744934;30;20630;-90
2022/07/29 10:57:19;;;;;;;0.43;0.43;;;22.10;48.40;;;;;;4746091;30;20215;-88
2022/07/29 10:59:47;;;;;;;0.50;0.50;;;22.10;48.40;;;;;;4760852;30;20187;-88
2022/07/29 11:02:51;;;;;;;0.88;0.88;;;22.10;48.30;;;;;;4760579;30;20235;-90
2022/07/29 11:05:31;;;;;;;0.52;0.52;;;22.00;48.40;;;;;;4748338;30;20187;-89
2022/07/29 11:08:21;;;;;;;0.63;0.63;;;22.10;48.30;;;;;;4743610;30;20290;-90
2022/07/29 11:10:50;;;;;;;0.70;0.70;;;22.10;48.30;;;;;;4743533;30;20283;-89
2022/07/29 11:13:46;;;;;;;0.50;0.50;;;22.10;48.20;;;;;;4729683;30;20222;-88
2022/07/29 11:16:15;;;;;;;0.60;0.60;;;22.10;48.30;;;;;;4758743;30;20192;-89
2022/07/29 11:19:18;;;;;;;0.45;0.45;;;22.10;48.00;;;;;;4761929;30;20188;-89
2022/07/29 11:21:49;;;;;;;0.47;0.47;;;22.10;48.00;;;;;;4777296;30;20192;-89
2022/07/29 11:24:22;;;;;;;0.50;0.50;;;22.10;48.00;;;;;;4762290;30;20199;-89
2022/07/29 11:27:10;;;;;;;0.40;0.40;;;22.20;48.00;;;;;;4763090;30;20195;-89
2022/07/29 11:29:40;;;;;;;0.50;0.50;;;22.20;48.00;;;;;;4744110;30;20196;-87
2022/07/29 11:32:17;;;;;;;0.60;0.60;;;22.10;47.80;;;;;;4744704;30;20196;-88
2022/07/29 11:34:47;;;;;;;0.50;0.50;;;22.20;47.90;;;;;;4730257;30;20203;-89
2022/07/29 11:37:14;;;;;;;0.60;0.60;;;22.20;47.80;;;;;;4744646;30;20366;-88
2022/07/29 11:39:46;;;;;;;0.70;0.70;;;22.20;47.70;;;;;;4717986;30;20197;-89
2022/07/29 11:42:34;;;;;;;0.70;0.70;;;22.20;47.70;;;;;;4741956;30;20193;-88
2022/07/29 11:45:09;;;;;;;0.70;0.70;;;22.30;47.60;;;;;;4741331;30;20262;-89
2022/07/29 11:47:38;;;;;;;0.60;0.60;;;22.20;47.60;;;;;;4756397;30;20617;-89
2022/07/29 11:50:10;;;;;;;0.68;0.68;;;22.20;47.60;;;;;;4765482;30;20192;-89
2022/07/29 11:52:45;;;;;;;0.60;0.60;;;22.20;47.50;;;;;;4765063;30;20282;-88
2022/07/29 11:55:16;;;;;;;0.57;0.57;;;22.20;47.50;;;;;;4752040;30;20256;-89
2022/07/29 11:57:56;;;;;;;0.45;0.45;;;22.30;47.50;;;;;;4730358;30;20307;-91
2022/07/29 12:00:37;;;;;;;0.50;0.50;;;22.30;47.40;;;;;;4728164;30;20246;-88
2022/07/29 12:03:06;;;;;;;0.40;0.40;;;22.40;47.60;;;;;;4719233;30;20198;-89
2022/07/29 12:05:40;;;;;;;0.70;0.70;;;22.30;47.50;;;;;;4725065;30;20220;-89
2022/07/29 12:08:09;;;;;;;1.02;0.55;;;22.30;48.00;;;;;;4710126;30;20218;-89
2022/07/29 12:10:39;;;;;;;0.50;0.50;;;22.20;47.60;;;;;;4710472;30;20198;-87
2022/07/29 12:13:10;;;;;;;0.43;0.40;;;22.10;47.80;;;;;;4709320;30;20240;-89
2022/07/29 12:15:39;;;;;;;0.50;0.50;;;22.10;47.80;;;;;;4704075;30;20254;-89
2022/07/29 12:18:14;;;;;;;0.70;0.70;;;22.00;47.80;;;;;;4710219;30;20249;-89
2022/07/29 12:20:45;;;;;;;0.50;0.50;;;22.10;47.70;;;;;;4707511;30;20221;-89
2022/07/29 12:24:34;;;;;;;;;;;;;;;;;;;;;
2022/07/29 12:30:45;;;;;;;0.70;0.70;;;22.00;47.80;;;;;;4655837;30;20189;-89
2022/07/29 12:34:11;;;;;;;;;;;;;;;;;;;;;
2022/07/29 12:41:03;;;;;;;;;;;;;;;;;;;;;
2022/07/29 12:44:33;;;;;;;;;;;;;;;;;;;;;
2022/07/29 12:48:08;;;;;;;;;;;;;;;;;;;;;
2022/07/29 12:58:44;;;;;;;;;;;;;;;;;;;;;
2022/07/29 13:01:19;;;;;;;0.60;0.60;;;22.10;47.30;;;;;;4598020;31;20198;-91
2022/07/29 13:04:32;;;;;;;0.60;0.60;;;22.20;47.90;;;;;;4607268;31;20199;-88
2022/07/29 13:07:50;;;;;;;0.50;0.50;;;22.20;47.00;;;;;;4566675;31;20297;-89
2022/07/29 13:11:12;;;;;;;0.57;0.57;;;22.20;46.80;;;;;;4532299;31;20213;-89
2022/07/29 13:14:22;;;;;;;0.70;0.70;;;22.20;46.70;;;;;;4496671;31;20204;-89
2022/07/29 13:20:44;;;;;;;;;;;;;;;;;;;;;
2022/07/29 13:27:56;;;;;;;0.70;0.70;;;22.30;46.30;;;;;;4607281;31;20191;-88
2022/07/29 13:30:58;;;;;;;0.70;0.70;;;22.30;46.40;;;;;;4591170;31;20297;-90
2022/07/29 13:33:57;;;;;;;0.60;0.60;;;22.20;46.40;;;;;;4590808;31;20290;-89
2022/07/29 13:54:43;;;;;;;;;;;;;;;;;;;;;
2022/07/29 13:58:18;;;;;;;;;;;;;;;;;;;;;
2022/07/29 14:05:21;;;;;;;0.80;0.80;;;22.30;45.80;;;;;;4545620;31;20197;-89
2022/07/29 14:09:10;;;;;;;;;;;;;;;;;;;;;
2022/07/29 14:44:32;;;;;;;;;;;;;;;;;;;;;
2022/07/29 14:47:45;;;;;;;0.55;0.55;;;22.40;45.30;;;;;;4602930;31;20751;-90
2022/07/29 14:50:33;;;;;;;;;;;;;;;;;;;;;
2022/07/29 14:53:43;;;;;;;;;;;;;;;;;;;;;
2022/07/29 14:57:03;;;;;;;0.60;0.60;;;22.40;45.20;;;;;;4572131;31;20283;-89
2022/07/29 15:00:33;;;;;;;;;;;;;;;;;;;;;
2022/07/29 15:14:38;;;;;;;;;;;;;;;;;;;;;
2022/07/29 15:21:36;;;;;;;0.60;0.60;;;22.50;44.80;;;;;;4501488;31;20757;-89
